createdAt,value
2024-03-16T00:02:03.601Z,2.08
2024-03-16T00:04:30.474Z,2.80
2024-03-16T00:06:59.119Z,2.27
2024-03-16T00:09:26.039Z,2.58
2024-03-16T00:11:52.785Z,3.33
2024-03-16T00:14:19.285Z,4.82
2024-03-16T00:16:45.818Z,3.85
2024-03-16T00:19:12.411Z,4.05
2024-03-16T00:21:39.016Z,3.65
2024-03-16T00:24:05.804Z,3.10
2024-03-16T00:26:32.298Z,3.42
2024-03-16T00:28:59.516Z,4.25
2024-03-16T00:31:26.137Z,3.70
2024-03-16T00:33:52.728Z,2.40
2024-03-16T00:36:19.259Z,4.40
2024-03-16T00:38:50.784Z,3.88
2024-03-16T00:41:21.230Z,5.37
2024-03-16T00:43:47.733Z,3.58
2024-03-16T00:46:14.378Z,4.10
2024-03-16T00:48:41.155Z,4.82
2024-03-16T00:51:07.794Z,5.45
2024-03-16T00:53:34.414Z,4.60
2024-03-16T00:56:00.994Z,4.43
2024-03-16T00:58:28.541Z,3.45
2024-03-16T01:00:55.193Z,4.43
2024-03-16T01:03:21.915Z,4.28
2024-03-16T01:05:54.484Z,5.63
2024-03-16T01:08:20.983Z,4.70
2024-03-16T01:10:55.215Z,5.60
2024-03-16T01:13:22.459Z,5.05
2024-03-16T01:15:49.252Z,4.50
2024-03-16T01:18:15.793Z,4.55
2024-03-16T01:20:45.828Z,3.65
2024-03-16T01:23:14.239Z,6.75
2024-03-16T01:25:41.261Z,4.30
2024-03-16T01:28:07.898Z,3.88
2024-03-16T01:30:34.485Z,3.87
2024-03-16T01:33:01.113Z,2.55
2024-03-16T01:35:27.743Z,7.22
2024-03-16T01:37:54.353Z,5.50
2024-03-16T01:40:25.834Z,4.78
2024-03-16T01:42:55.793Z,3.90
2024-03-16T01:45:22.500Z,3.42
2024-03-16T01:47:49.074Z,6.45
2024-03-16T01:50:19.753Z,4.23
2024-03-16T01:52:47.901Z,6.13
2024-03-16T01:55:16.252Z,3.38
2024-03-16T01:57:43.024Z,3.83
2024-03-16T02:00:13.127Z,3.80
2024-03-16T02:02:40.905Z,4.55
2024-03-16T02:05:08.644Z,4.13
2024-03-16T02:07:38.068Z,4.35
2024-03-16T02:10:06.325Z,6.10
2024-03-16T02:12:33.201Z,4.72
2024-03-16T02:15:00.701Z,4.10
2024-03-16T02:17:27.774Z,3.28
2024-03-16T02:19:54.406Z,5.17
2024-03-16T02:22:20.885Z,4.95
2024-03-16T02:24:50.592Z,5.75
2024-03-16T02:27:17.541Z,5.22
2024-03-16T02:29:44.203Z,5.55
2024-03-16T02:32:11.027Z,4.30
2024-03-16T02:34:38.469Z,7.55
2024-03-16T02:37:06.425Z,3.90
2024-03-16T02:39:33.839Z,4.75
2024-03-16T02:42:01.650Z,6.40
2024-03-16T02:44:28.253Z,5.75
2024-03-16T02:46:54.794Z,6.35
2024-03-16T02:49:23.932Z,6.28
2024-03-16T02:51:50.546Z,6.65
2024-03-16T02:54:17.678Z,6.50
2024-03-16T02:56:44.236Z,4.63
2024-03-16T02:59:10.979Z,6.55
2024-03-16T03:01:38.666Z,7.38
2024-03-16T03:04:06.614Z,6.63
2024-03-16T03:06:34.644Z,6.97
2024-03-16T03:09:01.709Z,6.30
2024-03-16T03:11:28.292Z,4.53
2024-03-16T03:13:54.998Z,9.27
2024-03-16T03:16:21.534Z,9.23
2024-03-16T03:18:49.020Z,8.47
2024-03-16T03:21:16.174Z,8.50
2024-03-16T03:23:43.047Z,9.05
2024-03-16T03:26:10.635Z,8.52
2024-03-16T03:28:37.343Z,8.68
2024-03-16T03:31:05.081Z,8.13
2024-03-16T03:33:32.127Z,9.15
2024-03-16T03:36:00.679Z,7.18
2024-03-16T03:38:27.489Z,8.40
2024-03-16T03:40:53.984Z,7.15
2024-03-16T03:43:22.801Z,7.50
2024-03-16T03:45:53.783Z,8.70
2024-03-16T03:48:24.204Z,9.50
2024-03-16T03:50:50.802Z,7.73
2024-03-16T03:53:18.191Z,9.45
2024-03-16T03:55:45.086Z,9.73
2024-03-16T03:58:11.840Z,7.60
2024-03-16T04:00:38.908Z,10.23
2024-03-16T04:03:07.714Z,12.63
2024-03-16T04:05:34.802Z,9.33
2024-03-16T04:08:01.984Z,8.88
2024-03-16T04:10:28.737Z,9.95
2024-03-16T04:12:55.423Z,11.40
2024-03-16T04:15:22.053Z,12.32
2024-03-16T04:17:48.642Z,9.73
2024-03-16T04:20:15.252Z,10.88
2024-03-16T04:22:42.651Z,10.40
2024-03-16T04:25:15.150Z,12.23
2024-03-16T04:27:47.232Z,13.20
2024-03-16T04:30:14.799Z,15.32
2024-03-16T04:32:41.390Z,14.93
2024-03-16T04:35:08.772Z,13.55
2024-03-16T04:37:36.189Z,16.83
2024-03-16T04:40:05.454Z,14.10
2024-03-16T04:42:32.408Z,12.00
2024-03-16T04:44:58.965Z,11.20
2024-03-16T04:47:25.497Z,15.35
2024-03-16T04:49:52.067Z,12.48
2024-03-16T04:52:18.639Z,13.57
2024-03-16T04:54:46.312Z,15.98
2024-03-16T04:57:13.750Z,11.07
2024-03-16T04:59:41.007Z,12.98
2024-03-16T05:02:07.818Z,11.45
2024-03-16T05:04:34.652Z,9.10
2024-03-16T05:07:01.289Z,12.32
2024-03-16T05:09:28.033Z,9.32
2024-03-16T05:11:54.729Z,8.70
2024-03-16T05:14:21.424Z,9.13
2024-03-16T05:16:47.969Z,10.27
2024-03-16T05:19:14.513Z,10.32
2024-03-16T05:21:42.151Z,10.82
2024-03-16T05:24:08.811Z,8.20
2024-03-16T05:26:35.751Z,12.98
2024-03-16T05:29:02.613Z,9.85
2024-03-16T05:31:29.157Z,11.52
2024-03-16T05:33:55.746Z,9.05
2024-03-16T05:36:22.340Z,7.47
2024-03-16T05:38:48.946Z,8.35
2024-03-16T05:41:15.905Z,8.88
2024-03-16T05:43:45.662Z,8.73
2024-03-16T05:46:12.874Z,7.30
2024-03-16T05:48:39.886Z,6.53
2024-03-16T05:51:06.627Z,6.38
2024-03-16T05:53:33.202Z,6.55
2024-03-16T05:55:59.796Z,5.63
2024-03-16T05:58:26.964Z,7.75
2024-03-16T06:00:53.647Z,9.15
2024-03-16T06:03:20.339Z,7.78
2024-03-16T06:05:47.011Z,8.32
2024-03-16T06:08:15.215Z,5.95
2024-03-16T06:10:42.838Z,6.30
2024-03-16T06:13:11.775Z,6.37
2024-03-16T06:15:40.542Z,7.78
2024-03-16T06:18:07.644Z,5.50
2024-03-16T06:20:34.266Z,5.53
2024-03-16T06:23:00.816Z,5.80
2024-03-16T06:25:30.455Z,4.93
2024-03-16T06:28:06.903Z,6.57
2024-03-16T06:30:34.201Z,5.88
2024-03-16T06:33:07.228Z,5.77
2024-03-16T06:35:34.650Z,7.60
2024-03-16T06:38:01.242Z,6.28
2024-03-16T06:40:27.845Z,6.07
2024-03-16T06:42:54.473Z,5.63
2024-03-16T06:45:21.039Z,4.38
2024-03-16T06:47:47.645Z,6.20
2024-03-16T06:50:14.422Z,4.93
2024-03-16T06:52:41.094Z,8.23
2024-03-16T06:55:10.734Z,5.50
2024-03-16T06:57:37.348Z,4.88
2024-03-16T07:00:05.088Z,4.90
2024-03-16T07:02:31.872Z,4.57
2024-03-16T07:04:58.463Z,7.50
2024-03-16T07:07:24.975Z,3.60
2024-03-16T07:09:51.644Z,4.03
2024-03-16T07:12:18.208Z,3.70
2024-03-16T07:14:44.842Z,3.08
2024-03-16T07:17:11.399Z,4.15
2024-03-16T07:19:38.070Z,2.85
2024-03-16T07:22:04.829Z,4.20
2024-03-16T07:24:31.456Z,4.25
2024-03-16T07:26:58.073Z,3.40
2024-03-16T07:29:25.208Z,3.33
2024-03-16T07:31:52.003Z,2.67
2024-03-16T07:34:18.859Z,2.70
2024-03-16T07:36:45.795Z,3.90
2024-03-16T07:39:12.504Z,3.88
2024-03-16T07:41:39.178Z,2.75
2024-03-16T07:44:05.721Z,2.90
2024-03-16T07:46:32.250Z,4.23
2024-03-16T07:49:00.656Z,2.70
2024-03-16T07:51:30.339Z,2.42
2024-03-16T07:53:57.102Z,2.37
2024-03-16T07:56:23.660Z,2.33
2024-03-16T07:58:50.718Z,1.67
2024-03-16T08:01:17.638Z,3.58
2024-03-16T08:03:44.663Z,1.65
2024-03-16T08:06:12.116Z,2.25
2024-03-16T08:08:40.047Z,1.08
2024-03-16T08:11:08.392Z,1.13
2024-03-16T08:13:37.943Z,1.38
2024-03-16T08:16:05.158Z,3.17
2024-03-16T08:18:31.749Z,2.22
2024-03-16T08:20:59.021Z,0.98
2024-03-16T08:23:26.202Z,1.08
2024-03-16T08:25:52.935Z,1.10
2024-03-16T08:28:19.593Z,0.60
2024-03-16T08:30:46.378Z,0.90
2024-03-16T08:33:13.014Z,2.05
2024-03-16T08:35:40.138Z,0.98
2024-03-16T08:38:06.768Z,1.20
2024-03-16T08:40:34.046Z,0.90
2024-03-16T08:43:00.832Z,1.27
2024-03-16T08:45:27.511Z,1.00
2024-03-16T08:47:54.124Z,1.90
2024-03-16T08:50:20.770Z,1.45
2024-03-16T08:52:48.362Z,1.23
2024-03-16T08:55:15.257Z,2.73
2024-03-16T08:57:42.814Z,1.30
2024-03-16T09:00:13.777Z,2.58
2024-03-16T09:02:40.310Z,2.65
2024-03-16T09:05:09.736Z,2.20
2024-03-16T09:07:39.103Z,2.88
2024-03-16T09:10:09.725Z,1.77
2024-03-16T09:12:36.483Z,1.73
2024-03-16T09:15:06.703Z,2.47
2024-03-16T09:17:36.377Z,2.53
2024-03-16T09:20:09.575Z,3.28
2024-03-16T09:22:36.352Z,2.80
2024-03-16T09:25:07.238Z,3.40
2024-03-16T09:27:35.291Z,3.80
2024-03-16T09:30:02.899Z,3.30
2024-03-16T09:32:29.470Z,3.20
2024-03-16T09:34:56.152Z,4.03
2024-03-16T09:37:22.894Z,3.47
2024-03-16T09:39:49.681Z,4.07
2024-03-16T09:42:16.284Z,3.97
